Flight Track Log - Related Links

Times and Time Zones

All times are in EDT time to prevent confusion due to time zone crossing. See the LBQ860 flight status page for this flight to view local times or setup timezone preferences in your user account.

Time Position Orientation Groundspeed Altitude Reporting Facility
EDT Latitude Longitude Course Direction KTS MPH feet Rate Location/Type
Mon 07:51:05 PM 33.9333 -83.9667 205° Southwest 156 180 3,000  Level Atlanta TRACON
Mon 07:52:05 PM 33.8833 -83.9333 151° Southeast 182 209 4,300 1,000 Climbing Atlanta TRACON
Mon 07:53:05 PM 33.8333 -83.9000 151° Southeast 204 235 5,000 350 Climbing Atlanta TRACON
Mon 07:54:05 PM 33.7833 -83.8500 140° Southeast 233 268 5,000  Level Atlanta TRACON
Mon 07:55:05 PM 33.7333 -83.8000 140° Southeast 244 281 5,000 250 Level Atlanta TRACON
Mon 07:56:00 PM 33.5519 -84.1601 205° Southwest  Level FlightAware Approximate
Mon 07:56:05 PM 33.6833 -83.7500 140° Southeast 236 272 5,500  Level Atlanta TRACON
Mon 07:57:05 PM 33.6333 -83.7000 140° Southeast 220 253 6,400 750 Climbing Atlanta TRACON
Mon 07:58:05 PM 33.5833 -83.6667 151° Southeast 221 254 7,000 300 Climbing Atlanta TRACON
Mon 07:59:05 PM 33.5333 -83.6167 140° Southeast 241 277 7,000  Level Atlanta TRACON
Mon 08:00:11 PM 33.4667 -83.5667 148° Southeast 249 287 7,000  Level Atlanta TRACON
Mon 08:01:05 PM 33.4167 -83.5667 180° South 237 273 7,000 -48 Level Atlanta TRACON
Mon 08:02:17 PM 33.3333 -83.5833 189° South 234 269 6,900 -48 Descending Atlanta TRACON
Mon 08:03:11 PM 33.2833 -83.6167 209° Southwest 230 265 6,900  Level Atlanta TRACON
Mon 08:04:05 PM 33.2333 -83.6500 209° Southwest 232 267 6,900  Level Atlanta TRACON
Mon 08:05:05 PM 33.1833 -83.7000 220° Southwest 230 265 6,900  Level Atlanta TRACON
Mon 08:05:59 PM 33.1333 -83.7333 209° Southwest 229 264 6,900  Level Atlanta TRACON
Mon 08:06:59 PM 33.0833 -83.7833 220° Southwest 226 260 6,900  Level Atlanta TRACON
Mon 08:08:05 PM 33.0333 -83.8333 220° Southwest 223 257 6,900  Level Atlanta TRACON
Mon 08:09:05 PM 32.9833 -83.8833 220° Southwest 226 260 6,900  Level Atlanta TRACON
Mon 08:10:11 PM 32.9333 -83.9333 220° Southwest 227 261 6,900 -381 Level Atlanta TRACON
Mon 08:11:11 PM 32.8833 -83.9833 220° Southwest 241 277 6,100 -526 Descending Atlanta TRACON
Mon 08:12:05 PM 32.8333 -84.0333 220° Southwest 238 274 5,900 -105 Descending Atlanta TRACON
Mon 08:13:05 PM 32.7833 -84.0667 209° Southwest 229 264 5,900  Level Atlanta TRACON
Mon 08:14:11 PM 32.7333 -84.1167 220° Southwest 223 257 5,900  Level Atlanta TRACON
Mon 08:15:05 PM 32.6833 -84.1667 220° Southwest 223 257 5,900  Level Atlanta TRACON
Mon 08:16:05 PM 32.6333 -84.2167 220° Southwest 226 260 5,900  Level Atlanta TRACON
Mon 08:16:59 PM 32.6000 -84.2500 220° Southwest 222 255 5,900 53 Level Atlanta TRACON
Mon 08:17:59 PM 32.5500 -84.3000 220° Southwest 222 255 6,000 50 Climbing Atlanta TRACON
Mon 08:18:59 PM 32.5000 -84.3500 220° Southwest 223 257 6,000  Level Atlanta TRACON
Mon 08:19:59 PM 32.4500 -84.3833 209° Southwest 221 254 6,000 53 Level Atlanta TRACON
Mon 08:20:53 PM 32.4000 -84.4167 209° Southwest 223 257 6,100  Climbing Atlanta TRACON
Mon 08:21:59 PM 32.3500 -84.4667 220° Southwest 220 253 6,000 -45 Descending Atlanta TRACON
Mon 08:23:05 PM 32.3000 -84.5167 220° Southwest 229 264 6,000  Level Atlanta TRACON
Mon 08:23:59 PM 32.2500 -84.5667 220° Southwest 233 268 6,000  Level Atlanta TRACON
Mon 08:24:59 PM 32.2000 -84.6167 220° Southwest 228 262 6,000  Level Atlanta TRACON
Mon 08:25:53 PM 32.1500 -84.6333 196° South 230 265 6,000  Level Atlanta TRACON
Mon 08:27:11 PM 32.0833 -84.6833 212° Southwest 224 258 6,000  Level Atlanta TRACON
Mon 08:27:43 PM 32.0536 -84.6942 197° South 226 260 6,000  Level Jacksonville Center
Mon 08:28:43 PM 32.0028 -84.7397 217° Southwest 221 254 6,000  Level Jacksonville Center
Mon 08:29:51 PM 31.9475 -84.7975 222° Southwest 226 260 6,000  Level Jacksonville Center
Mon 08:30:43 PM 31.9011 -84.8406 218° Southwest 229 264 6,000  Level Jacksonville Center
Mon 08:31:52 PM 31.8542 -84.8933 224° Southwest 222 255 6,000  Level Jacksonville Center
Mon 08:32:43 PM 31.8119 -84.9292 216° Southwest 229 264 6,000  Level Jacksonville Center
Mon 08:33:43 PM 31.7675 -84.9722 219° Southwest 229 264 6,000  Level Jacksonville Center
Mon 08:34:43 PM 31.7164 -85.0197 218° Southwest 234 269 6,000  Level Jacksonville Center
Mon 08:35:43 PM 31.6656 -85.0650 217° Southwest 234 269 6,000  Level Jacksonville Center
Mon 08:36:43 PM 31.6147 -85.1103 217° Southwest 234 269 6,000  Level Jacksonville Center
Mon 08:37:43 PM 31.5553 -85.1622 217° Southwest 228 262 6,000  Level Jacksonville Center
Mon 08:38:43 PM 31.5044 -85.2050 216° Southwest 233 268 6,000  Level Jacksonville Center
Mon 08:39:57 PM 31.4408 -85.2544 214° Southwest 236 272 6,000  Level Jacksonville Center
Mon 08:40:57 PM 31.3878 -85.2994 216° Southwest 237 273 6,000  Level Jacksonville Center
Mon 08:41:58 PM 31.3347 -85.3492 219° Southwest 236 272 6,000  Level Jacksonville Center
Mon 08:42:59 PM 31.2775 -85.3939 214° Southwest 236 272 6,000  Level Jacksonville Center
Mon 08:43:59 PM 31.2286 -85.4411 220° Southwest 236 272 6,000  Level Jacksonville Center
Mon 08:45:00 PM 31.1753 -85.4931 220° Southwest 233 268 6,000  Level Jacksonville Center
Mon 08:46:00 PM 31.1283 -85.5403 221° Southwest 231 266 6,000  Level Jacksonville Center
Mon 08:47:01 PM 31.0772 -85.5922 221° Southwest 231 266 6,000  Level Jacksonville Center
Mon 08:48:02 PM 31.0364 -85.6467 229° Southwest 233 268 6,000  Level Jacksonville Center
Mon 08:50:00 PM 30.9886 -85.7800 247° West  Level Estimated
Mon 08:57:00 PM 30.8176 -86.2534 247° West  Level Estimated
Mon 08:58:00 PM 30.7930 -86.3209 247° West  Level Estimated
Mon 08:59:00 PM 30.7684 -86.3883 247° West  Level Estimated
Mon 09:00:00 PM 30.7437 -86.4557 247° West  Level Estimated
Mon 09:00:09 PM 30.8578 -86.5225 247° West 228 262 6,000  Level Jacksonville Center
Mon 09:00:58 PM 30.8436 -86.5822 255° West 229 264 6,000  Level Jacksonville Center
Mon 09:01:00 PM 30.7190 -86.5231 247° West  Level Estimated
Mon 09:01:58 PM 30.8311 -86.6519 258° West 229 264 6,000  Level Jacksonville Center
Mon 09:02:00 PM 30.6943 -86.5905 247° West  Level Estimated
Mon 09:02:59 PM 30.8103 -86.7236 251° West 231 266 6,100  Level Jacksonville Center
Mon 09:03:00 PM 30.6695 -86.6578 247° West  Level Estimated
Mon 09:03:59 PM 30.7686 -86.7850 232° Southwest 233 268 6,000  Level Jacksonville Center
Mon 09:04:00 PM 30.6448 -86.7251 247° West  Level Estimated
Mon 09:04:54 PM 30.7317 -86.8342 229° Southwest 232 267 6,000  Level Jacksonville Center
Mon 09:05:00 PM 30.6199 -86.7923 247° West  Level Estimated
Mon 09:05:55 PM 30.6881 -86.8950 230° Southwest 242 278 5,200  Level Jacksonville Center
Mon 09:06:56 PM 30.6422 -86.9558 229° Southwest 251 289 4,300 -938 Descending Jacksonville Center
Mon 09:08:03 PM 30.5942 -87.0214 230° Southwest 243 280 3,200 -992 Descending Jacksonville Center
Mon 09:09:03 PM 30.5464 -87.0819 228° Southwest 238 274 2,200 -893 Descending Jacksonville Center
Mon 09:10:04 PM 30.5028 -87.1308 224° Southwest 221 254 1,400 -836 Descending Jacksonville Center
Mon 09:11:05 PM 30.4744 -87.1706 230° Southwest 110 127 500 -885 Descending Jacksonville Center

Login

Don't have an account? Register now (free) for customized features, flight alerts, and more!